Wabuska, Nevada
Current Conditions -  °F | °C
As of 1:35 AM on Thursday 23 Oct 2014 (Local Time) from KMEV Reporting Station
Clear Clear  
Wind Chill: 43°   Ceiling: Unl
Heat Index: 43°   Visibility: 10mi
Dew Point: 27°   Wind: 3mph
Humidity: 53%   Direction: 350°N
Pressure: 30.12"   Gusts: NA
Location:  38.8785°N, 119.096°W
Report Text: KMEV 230835Z AUTO 35003KT 10SM CLR 06/M03 A3012 RMK AO2
Loading
Personal Weather Stations






























Interactive Weather Map
Tropical Storm Tracking
New forecast layout! Learn more

10-Day Weather Forecast

Advertisements
Track Severe Weather on mobile